createdAt,value
2023-04-01T00:00:31.223Z,24.00
2023-04-01T00:01:33.392Z,25.10
2023-04-01T00:02:36.714Z,19.80
2023-04-01T00:03:39.358Z,23.00
2023-04-01T00:04:41.776Z,24.60
2023-04-01T00:05:43.923Z,24.40
2023-04-01T00:06:47.056Z,23.70
2023-04-01T00:07:49.196Z,24.40
2023-04-01T00:08:51.210Z,23.78
2023-04-01T00:10:03.606Z,21.56
2023-04-01T00:11:05.730Z,25.00
2023-04-01T00:12:10.543Z,16.00
2023-04-01T00:13:15.016Z,24.10
2023-04-01T00:14:18.422Z,24.00
2023-04-01T00:15:22.068Z,22.70
2023-04-01T00:16:25.129Z,24.67
2023-04-01T00:17:28.918Z,25.00
2023-04-01T00:18:30.862Z,23.40
2023-04-01T00:19:36.764Z,24.00
2023-04-01T00:20:48.730Z,25.60
2023-04-01T00:21:50.826Z,21.80
2023-04-01T00:22:55.437Z,23.90
2023-04-01T00:23:59.511Z,23.10
2023-04-01T00:25:01.934Z,24.50
2023-04-01T00:26:07.636Z,23.00
2023-04-01T00:27:10.930Z,21.80
2023-04-01T00:28:19.298Z,24.90
2023-04-01T00:29:25.037Z,21.00
2023-04-01T00:30:29.416Z,24.80
2023-04-01T00:31:35.226Z,23.40
2023-04-01T00:32:41.932Z,23.90
2023-04-01T00:33:51.503Z,23.20
2023-04-01T00:34:54.095Z,24.40
2023-04-01T00:35:57.982Z,23.60
2023-04-01T00:37:00.633Z,20.70
2023-04-01T00:38:04.311Z,24.50
2023-04-01T00:39:08.361Z,23.00
2023-04-01T00:40:35.302Z,23.00
2023-04-01T00:41:41.186Z,21.30
2023-04-01T00:42:47.450Z,23.60
2023-04-01T00:43:51.382Z,23.60
2023-04-01T00:44:56.249Z,22.90
2023-04-01T00:45:58.376Z,23.30
2023-04-01T00:47:00.896Z,22.60
2023-04-01T00:50:50.593Z,23.00
2023-04-01T00:52:01.442Z,21.10
2023-04-01T00:54:07.746Z,23.00
2023-04-01T00:55:11.714Z,20.00
2023-04-01T00:56:20.959Z,22.00
2023-04-01T00:58:54.299Z,21.00
2023-04-01T00:59:58.183Z,22.60
2023-04-01T01:01:01.745Z,22.60
2023-04-01T01:02:08.106Z,22.70
2023-04-01T01:03:10.296Z,20.20
2023-04-01T01:04:24.433Z,22.70
2023-04-01T01:05:50.040Z,21.10
2023-04-01T01:07:05.855Z,21.60
2023-04-01T01:12:13.287Z,20.00
2023-04-01T01:14:47.154Z,20.40
2023-04-01T01:16:17.835Z,18.30
2023-04-01T01:19:08.640Z,16.70
2023-04-01T01:22:09.199Z,19.00
2023-04-01T01:23:43.999Z,19.50
2023-04-01T01:25:14.348Z,18.70
2023-04-01T01:29:30.606Z,20.00
2023-04-01T01:30:42.621Z,21.60
2023-04-01T01:32:06.949Z,18.10
2023-04-01T01:33:13.027Z,14.10
2023-04-01T01:34:21.900Z,19.90
2023-04-01T01:36:38.940Z,18.50
2023-04-01T01:37:42.870Z,21.50
2023-04-01T01:38:45.463Z,18.60
2023-04-01T01:39:51.273Z,19.90
2023-04-01T01:40:53.592Z,21.50
2023-04-01T01:43:15.456Z,23.30
2023-04-01T01:44:18.519Z,20.80
2023-04-01T01:45:22.819Z,20.50
2023-04-01T01:46:26.091Z,16.40
2023-04-01T01:47:28.897Z,22.20
2023-04-01T01:48:31.570Z,18.50
2023-04-01T01:49:33.940Z,20.33
2023-04-01T01:50:36.993Z,20.60
2023-04-01T01:51:39.573Z,21.80
2023-04-01T01:52:42.968Z,18.60
2023-04-01T01:53:45.334Z,20.60
2023-04-01T01:54:52.878Z,22.30
2023-04-01T01:55:56.190Z,22.40
2023-04-01T01:57:07.485Z,20.60
2023-04-01T01:58:20.471Z,21.90
2023-04-01T01:59:22.972Z,20.90
2023-04-01T02:00:25.550Z,20.20
2023-04-01T02:01:29.823Z,20.90
2023-04-01T02:02:33.783Z,20.80
2023-04-01T02:03:37.351Z,19.00
2023-04-01T02:04:40.733Z,21.10
2023-04-01T02:05:42.875Z,19.40
2023-04-01T02:06:56.121Z,20.60
2023-04-01T02:09:11.718Z,19.10
2023-04-01T02:10:15.098Z,18.30
2023-04-01T02:11:18.652Z,19.70
2023-04-01T02:12:22.260Z,18.50
2023-04-01T02:13:30.475Z,18.10
2023-04-01T02:16:00.443Z,16.80
2023-04-01T02:17:05.836Z,18.20
2023-04-01T02:18:08.231Z,19.40
2023-04-01T02:19:11.582Z,18.91
2023-04-01T02:20:17.150Z,14.40
2023-04-01T02:21:19.854Z,18.00
2023-04-01T02:22:27.128Z,19.10
2023-04-01T02:23:29.201Z,18.10
2023-04-01T02:24:32.195Z,18.80
2023-04-01T02:25:36.083Z,19.40
2023-04-01T02:26:38.194Z,19.20
2023-04-01T02:27:41.610Z,17.80
2023-04-01T02:28:43.713Z,18.30
2023-04-01T02:29:45.888Z,17.40
2023-04-01T02:30:48.130Z,9.80
2023-04-01T02:31:50.213Z,17.40
2023-04-01T02:32:53.383Z,17.20
2023-04-01T02:33:55.453Z,20.00
2023-04-01T02:34:57.529Z,17.80
2023-04-01T02:35:59.935Z,15.40
2023-04-01T02:37:02.364Z,15.60
2023-04-01T02:38:04.309Z,13.10
2023-04-01T02:39:06.665Z,19.40
2023-04-01T02:40:13.175Z,18.30
2023-04-01T02:41:15.441Z,16.00
2023-04-01T02:42:17.369Z,19.30
2023-04-01T02:43:19.418Z,18.30
2023-04-01T02:44:21.426Z,9.67
2023-04-01T02:45:23.312Z,19.44
2023-04-01T02:46:25.859Z,19.80
2023-04-01T02:47:27.978Z,18.90
2023-04-01T02:48:30.177Z,20.20
2023-04-01T02:49:32.138Z,21.20
2023-04-01T02:50:34.328Z,20.50
2023-04-01T02:51:36.678Z,19.40
2023-04-01T02:52:39.326Z,19.90
2023-04-01T02:53:41.689Z,18.30
2023-04-01T02:54:43.785Z,19.90
2023-04-01T02:55:45.745Z,19.00
2023-04-01T02:56:48.216Z,21.00
2023-04-01T02:57:50.443Z,19.90
2023-04-01T02:58:53.817Z,20.70
2023-04-01T02:59:55.824Z,14.50
2023-04-01T03:00:57.900Z,19.80
2023-04-01T03:01:59.923Z,19.67
2023-04-01T03:03:02.058Z,18.78
2023-04-01T03:04:04.885Z,20.80
2023-04-01T03:05:08.654Z,18.90
2023-04-01T03:06:14.034Z,20.90
2023-04-01T03:07:16.388Z,20.90
2023-04-01T03:08:18.762Z,20.30
2023-04-01T03:09:20.821Z,20.60
2023-04-01T03:10:23.753Z,19.50
2023-04-01T03:11:26.363Z,19.60
2023-04-01T03:12:29.461Z,19.90
2023-04-01T03:13:32.950Z,20.60
2023-04-01T03:14:36.254Z,17.30
2023-04-01T03:15:38.372Z,21.90
2023-04-01T03:16:41.187Z,17.80
2023-04-01T03:17:43.577Z,22.09
2023-04-01T03:18:46.494Z,18.09
2023-04-01T03:19:48.585Z,19.80
2023-04-01T03:20:50.735Z,19.50
2023-04-01T03:21:52.705Z,20.70
2023-04-01T03:22:54.637Z,19.60
2023-04-01T03:23:56.551Z,21.78
2023-04-01T03:24:58.992Z,21.30
2023-04-01T03:26:01.068Z,20.20
2023-04-01T03:27:04.161Z,19.44
2023-04-01T03:28:06.850Z,19.20
2023-04-01T03:29:08.894Z,21.30
2023-04-01T03:30:11.853Z,19.20
2023-04-01T03:31:16.515Z,18.30
2023-04-01T03:32:20.541Z,19.90
2023-04-01T03:33:22.590Z,17.90
2023-04-01T03:34:25.464Z,15.70
2023-04-01T03:35:27.755Z,21.90
2023-04-01T03:36:29.968Z,20.70
2023-04-01T03:37:32.317Z,21.40
2023-04-01T03:38:35.998Z,20.90
2023-04-01T03:39:38.523Z,20.90
2023-04-01T03:40:43.605Z,20.40
2023-04-01T03:41:46.501Z,20.60
2023-04-01T03:42:48.622Z,19.00
2023-04-01T03:43:50.755Z,20.00
2023-04-01T03:44:52.750Z,17.78
2023-04-01T03:45:55.313Z,19.50
2023-04-01T03:46:58.079Z,19.40
2023-04-01T03:48:00.233Z,20.70
2023-04-01T03:49:03.609Z,19.70
2023-04-01T03:50:07.702Z,18.00
2023-04-01T03:51:09.823Z,18.70
2023-04-01T03:52:12.205Z,18.00
2023-04-01T03:53:14.359Z,15.20
2023-04-01T03:54:16.497Z,18.90
2023-04-01T03:55:18.959Z,17.50
2023-04-01T03:56:22.469Z,19.90
2023-04-01T03:57:25.977Z,17.55
2023-04-01T03:58:28.358Z,13.09
2023-04-01T03:59:30.840Z,17.10
2023-04-01T04:00:33.778Z,19.00
2023-04-01T04:01:36.186Z,20.10
2023-04-01T04:02:38.650Z,19.60
2023-04-01T04:03:41.605Z,19.50
2023-04-01T04:04:44.237Z,19.50
2023-04-01T04:05:48.045Z,20.80
2023-04-01T04:06:50.658Z,20.40
2023-04-01T04:07:53.458Z,20.27
2023-04-01T04:08:56.600Z,19.11
2023-04-01T04:09:58.680Z,21.60
2023-04-01T04:11:01.633Z,19.50
2023-04-01T04:12:05.614Z,17.60
2023-04-01T04:13:07.730Z,19.90
2023-04-01T04:14:11.922Z,16.70
2023-04-01T04:15:14.020Z,17.70
2023-04-01T04:16:17.065Z,16.10
2023-04-01T04:17:21.620Z,21.40
2023-04-01T04:18:23.569Z,19.20
2023-04-01T04:19:25.595Z,16.44
2023-04-01T04:20:29.079Z,19.18
2023-04-01T04:21:31.503Z,19.55
2023-04-01T04:22:35.182Z,17.20
2023-04-01T04:23:39.138Z,18.60
2023-04-01T04:24:41.600Z,17.50
2023-04-01T04:25:56.222Z,19.20
2023-04-01T04:26:58.510Z,14.80
2023-04-01T04:28:01.025Z,17.27
2023-04-01T04:29:03.101Z,15.00
2023-04-01T04:30:08.199Z,12.60
2023-04-01T04:31:10.637Z,19.30
2023-04-01T04:32:13.229Z,16.00
2023-04-01T04:33:15.644Z,12.80
2023-04-01T04:34:18.253Z,16.60
2023-04-01T04:35:20.995Z,19.30
2023-04-01T04:36:23.318Z,17.40
2023-04-01T04:37:26.235Z,17.90
2023-04-01T04:38:28.895Z,12.60
2023-04-01T04:39:30.943Z,19.00
2023-04-01T04:40:34.379Z,19.00
2023-04-01T04:41:37.781Z,19.00
2023-04-01T04:42:40.275Z,18.20
2023-04-01T04:45:05.582Z,18.30
2023-04-01T04:46:09.682Z,18.00
2023-04-01T04:47:11.999Z,18.20
2023-04-01T04:48:15.668Z,18.20
2023-04-01T04:49:17.682Z,18.60
2023-04-01T04:50:20.038Z,17.90
2023-04-01T04:51:22.209Z,15.70
2023-04-01T04:52:24.778Z,16.10
2023-04-01T04:53:26.934Z,16.50
2023-04-01T04:54:30.110Z,17.40
2023-04-01T04:55:34.711Z,17.60
2023-04-01T04:56:56.204Z,17.60
2023-04-01T04:57:59.720Z,11.30
2023-04-01T04:59:02.111Z,14.40
2023-04-01T05:00:08.118Z,15.00
2023-04-01T05:01:18.434Z,13.30
2023-04-01T05:02:20.806Z,14.90
2023-04-01T05:03:23.572Z,17.20
2023-04-01T05:04:25.933Z,12.20
2023-04-01T05:05:28.487Z,13.60
2023-04-01T05:06:31.538Z,17.00
2023-04-01T05:07:34.314Z,16.40
2023-04-01T05:08:36.431Z,15.82
2023-04-01T05:09:38.480Z,16.90
2023-04-01T05:10:41.281Z,16.55
2023-04-01T05:11:43.665Z,17.10
2023-04-01T05:12:46.267Z,16.20
2023-04-01T05:13:50.628Z,15.60
2023-04-01T05:14:52.689Z,16.30
2023-04-01T05:15:54.938Z,16.30
2023-04-01T05:16:57.220Z,17.90
2023-04-01T05:17:59.428Z,12.00
2023-04-01T05:19:02.807Z,16.80
2023-04-01T05:20:06.908Z,13.30
2023-04-01T05:21:10.613Z,16.40
2023-04-01T05:22:14.779Z,13.70
2023-04-01T05:23:17.078Z,16.10
2023-04-01T05:24:19.995Z,17.30
2023-04-01T05:25:22.303Z,16.45
2023-04-01T05:26:24.557Z,13.30
2023-04-01T05:27:26.516Z,12.40
2023-04-01T05:28:28.938Z,16.80
2023-04-01T05:29:31.200Z,16.60
2023-04-01T05:30:35.306Z,16.80
2023-04-01T05:31:39.625Z,15.60
2023-04-01T05:32:42.412Z,13.70
2023-04-01T05:33:44.531Z,13.40
2023-04-01T05:34:46.591Z,15.80
2023-04-01T05:35:48.688Z,12.90
2023-04-01T05:36:51.010Z,11.60
2023-04-01T05:37:53.078Z,16.20
2023-04-01T05:38:56.697Z,14.10
2023-04-01T05:40:01.094Z,17.90
2023-04-01T05:41:04.900Z,15.10
2023-04-01T05:42:07.898Z,14.90
2023-04-01T05:43:10.096Z,14.00
2023-04-01T05:44:12.582Z,17.90
2023-04-01T05:45:17.276Z,15.10
2023-04-01T05:47:43.006Z,17.60
2023-04-01T05:48:45.487Z,16.70
2023-04-01T05:49:48.126Z,15.80
2023-04-01T05:50:50.999Z,12.27
2023-04-01T05:51:52.963Z,16.20
2023-04-01T05:52:54.932Z,17.30
2023-04-01T05:53:57.881Z,16.40
2023-04-01T05:55:00.428Z,14.20
2023-04-01T05:56:03.999Z,16.36
2023-04-01T05:57:08.115Z,16.00
2023-04-01T05:58:10.577Z,15.30
2023-04-01T05:59:13.767Z,15.90
2023-04-01T06:00:18.352Z,14.00
2023-04-01T06:01:22.233Z,13.00
2023-04-01T06:02:24.425Z,13.55
2023-04-01T06:03:26.750Z,15.10
2023-04-01T06:04:31.397Z,16.10
2023-04-01T06:05:41.876Z,16.70
2023-04-01T06:06:44.112Z,16.50
2023-04-01T06:07:46.458Z,15.10
2023-04-01T06:08:48.817Z,10.30
2023-04-01T06:09:50.842Z,14.67
2023-04-01T06:12:47.917Z,15.00
2023-04-01T06:14:21.332Z,15.80
2023-04-01T06:15:28.153Z,15.20
2023-04-01T06:16:52.809Z,18.20
2023-04-01T06:18:25.243Z,16.10
2023-04-01T06:21:04.966Z,17.10
2023-04-01T06:22:30.207Z,10.80
2023-04-01T06:23:45.270Z,12.20
2023-04-01T06:25:13.738Z,13.50
2023-04-01T06:26:29.559Z,15.90
2023-04-01T06:28:02.020Z,17.00
2023-04-01T06:29:08.322Z,15.60
2023-04-01T06:30:34.240Z,15.60
2023-04-01T06:32:00.415Z,13.60
2023-04-01T06:33:34.191Z,15.90
2023-04-01T06:34:43.541Z,16.60
2023-04-01T06:36:08.478Z,14.10
2023-04-01T06:40:13.372Z,15.00
2023-04-01T06:41:31.064Z,14.90
2023-04-01T06:42:42.698Z,13.80
2023-04-01T06:44:03.032Z,11.60
2023-04-01T06:45:34.117Z,13.00
2023-04-01T06:47:10.981Z,14.00
2023-04-01T06:48:42.056Z,6.50
2023-04-01T06:50:08.677Z,14.30
2023-04-01T06:51:19.334Z,14.00
2023-04-01T06:54:13.146Z,15.80
2023-04-01T06:55:39.902Z,10.80
2023-04-01T06:58:06.600Z,15.70
2023-04-01T06:59:32.317Z,15.10
2023-04-01T07:01:53.644Z,13.70
2023-04-01T07:04:31.265Z,15.30
2023-04-01T07:05:34.969Z,13.50
2023-04-01T07:06:40.998Z,13.50
2023-04-01T07:07:51.551Z,16.50
2023-04-01T07:08:54.917Z,14.80
2023-04-01T07:09:58.458Z,16.20
2023-04-01T07:11:11.848Z,17.00
2023-04-01T07:12:43.050Z,14.60
2023-04-01T07:15:04.260Z,19.10
2023-04-01T07:16:13.552Z,16.70
2023-04-01T07:18:33.381Z,19.00
2023-04-01T07:20:54.502Z,16.50
2023-04-01T07:22:25.222Z,15.20
2023-04-01T07:23:34.581Z,16.10
2023-04-01T07:24:41.264Z,15.70
2023-04-01T07:25:45.096Z,17.50
2023-04-01T07:26:57.441Z,15.80
2023-04-01T07:28:05.269Z,16.20
2023-04-01T07:29:12.802Z,15.80
2023-04-01T07:30:19.415Z,16.90
2023-04-01T07:31:37.392Z,18.80
2023-04-01T07:32:52.563Z,18.20
2023-04-01T07:35:29.450Z,13.40
2023-04-01T07:39:51.869Z,20.00
2023-04-01T07:41:00.226Z,18.60
2023-04-01T07:42:18.408Z,21.60
2023-04-01T07:43:24.606Z,20.90
2023-04-01T07:44:38.067Z,22.40
2023-04-01T07:46:01.965Z,20.30
2023-04-01T07:47:24.603Z,21.60
2023-04-01T07:48:33.328Z,21.70
2023-04-01T07:49:58.256Z,19.90
2023-04-01T07:51:19.377Z,22.70
2023-04-01T07:52:46.856Z,18.20
2023-04-01T07:53:54.891Z,18.70
2023-04-01T07:56:35.760Z,23.60
2023-04-01T07:57:45.145Z,25.40
2023-04-01T08:00:30.411Z,25.70
2023-04-01T08:01:53.039Z,24.90
2023-04-01T08:03:15.102Z,25.70
2023-04-01T08:04:30.302Z,25.00
2023-04-01T08:05:43.372Z,24.20
2023-04-01T08:08:23.833Z,25.10
2023-04-01T08:11:34.785Z,24.40
2023-04-01T08:14:37.066Z,23.50
2023-04-01T08:16:19.087Z,22.80
2023-04-01T08:17:52.720Z,24.20
2023-04-01T08:19:06.206Z,23.50
2023-04-01T08:20:18.728Z,22.30
2023-04-01T08:21:25.887Z,24.50
2023-04-01T08:22:34.264Z,22.60
2023-04-01T08:23:43.248Z,23.70
2023-04-01T08:24:48.278Z,20.40
2023-04-01T08:26:17.483Z,22.70
2023-04-01T08:27:22.692Z,23.60
2023-04-01T08:30:18.626Z,19.40
2023-04-01T08:31:28.387Z,22.60
2023-04-01T08:32:38.386Z,22.70
2023-04-01T08:33:48.318Z,19.80
2023-04-01T08:35:01.740Z,17.50
2023-04-01T08:37:41.117Z,23.70
2023-04-01T08:38:52.245Z,20.70
2023-04-01T08:41:53.888Z,24.30
2023-04-01T08:43:26.119Z,22.10
2023-04-01T08:44:41.543Z,22.20
2023-04-01T08:46:10.626Z,23.30
2023-04-01T08:47:22.489Z,21.30
2023-04-01T08:48:50.392Z,21.80
2023-04-01T08:50:31.213Z,14.20
2023-04-01T08:52:13.727Z,23.00
2023-04-01T08:53:37.270Z,23.50
2023-04-01T08:55:05.382Z,23.40
2023-04-01T08:56:18.200Z,20.20
2023-04-01T08:58:01.325Z,23.30
2023-04-01T08:59:48.846Z,13.50
2023-04-01T09:01:37.491Z,22.60
2023-04-01T09:02:48.623Z,22.80
2023-04-01T09:04:41.282Z,22.20
2023-04-01T09:06:03.731Z,21.60
2023-04-01T09:07:37.051Z,23.20
2023-04-01T09:09:00.883Z,21.90
2023-04-01T09:10:24.833Z,19.10
2023-04-01T09:13:14.484Z,21.80
2023-04-01T09:16:14.870Z,22.80
2023-04-01T09:19:37.084Z,21.20
2023-04-01T09:22:34.447Z,21.30
2023-04-01T09:25:54.961Z,21.70
2023-04-01T09:28:20.881Z,22.80
2023-04-01T09:31:13.360Z,22.60
2023-04-01T09:34:03.529Z,20.70
2023-04-01T09:35:27.796Z,15.70
2023-04-01T09:36:44.935Z,22.10
2023-04-01T09:37:57.735Z,22.30
2023-04-01T09:40:49.540Z,20.70
2023-04-01T09:43:28.905Z,19.70
2023-04-01T09:44:36.974Z,20.30
2023-04-01T09:45:59.335Z,17.30
2023-04-01T09:47:32.400Z,17.50
2023-04-01T09:49:08.114Z,14.50
2023-04-01T09:52:16.496Z,15.10
2023-04-01T09:53:56.135Z,15.70
2023-04-01T09:55:19.911Z,16.70
2023-04-01T09:59:42.976Z,15.60
2023-04-01T10:02:51.441Z,15.80
2023-04-01T10:04:21.070Z,16.10
2023-04-01T10:05:44.167Z,17.70
2023-04-01T10:07:11.328Z,18.30
2023-04-01T10:08:34.622Z,16.30
2023-04-01T10:10:01.809Z,17.10
2023-04-01T10:11:12.703Z,17.90
2023-04-01T10:12:55.140Z,12.50
2023-04-01T10:14:37.801Z,16.50
2023-04-01T10:16:14.274Z,17.90
2023-04-01T10:17:40.047Z,17.10
2023-04-01T10:19:11.769Z,18.40
2023-04-01T10:20:22.313Z,17.90
2023-04-01T10:21:51.588Z,16.70
2023-04-01T10:23:22.325Z,14.50
2023-04-01T10:24:48.210Z,13.50
2023-04-01T10:26:31.323Z,13.10
2023-04-01T10:27:46.932Z,17.50
2023-04-01T10:31:06.174Z,19.20
2023-04-01T10:32:35.893Z,14.20
2023-04-01T10:33:57.417Z,17.00
2023-04-01T10:35:37.135Z,15.80
2023-04-01T10:38:45.180Z,18.90
2023-04-01T10:40:27.186Z,13.90
2023-04-01T10:42:26.867Z,16.50
2023-04-01T10:43:55.409Z,17.90
2023-04-01T10:45:13.064Z,16.90
2023-04-01T10:46:23.826Z,7.90
2023-04-01T10:48:00.652Z,16.40
2023-04-01T10:49:23.308Z,16.30
2023-04-01T10:50:53.130Z,15.70
2023-04-01T10:52:27.746Z,13.10
2023-04-01T10:55:39.593Z,15.20
2023-04-01T10:57:27.332Z,14.00
2023-04-01T10:59:19.025Z,14.50
2023-04-01T11:01:06.448Z,15.80
2023-04-01T11:02:59.674Z,11.80
2023-04-01T11:06:10.565Z,15.10
2023-04-01T11:07:41.856Z,13.50
2023-04-01T11:09:00.360Z,13.30
2023-04-01T11:10:12.618Z,12.20
2023-04-01T11:12:52.768Z,10.80
2023-04-01T11:14:37.019Z,14.20
2023-04-01T11:16:18.657Z,9.00
2023-04-01T11:17:28.318Z,10.90
2023-04-01T11:18:43.381Z,11.90
2023-04-01T11:20:04.575Z,12.60
2023-04-01T11:21:23.857Z,10.50
2023-04-01T11:22:54.508Z,12.20
2023-04-01T11:24:05.585Z,11.30
2023-04-01T11:25:16.099Z,10.80
2023-04-01T11:26:33.172Z,7.60
2023-04-01T11:30:00.804Z,11.00
2023-04-01T11:32:48.628Z,10.90
2023-04-01T11:34:28.384Z,10.90
2023-04-01T11:37:22.960Z,10.60
2023-04-01T11:40:46.818Z,7.90
2023-04-01T11:43:37.034Z,10.70
2023-04-01T11:46:32.176Z,10.90
2023-04-01T11:47:54.909Z,10.40
2023-04-01T11:49:07.735Z,10.00
2023-04-01T11:50:28.761Z,9.30
2023-04-01T11:51:48.673Z,10.10
2023-04-01T11:53:15.672Z,9.50
2023-04-01T11:54:41.078Z,9.20
2023-04-01T11:56:07.775Z,9.30
2023-04-01T11:57:17.097Z,9.50
2023-04-01T11:58:25.785Z,10.60
2023-04-01T11:59:46.892Z,11.50
2023-04-01T12:00:55.655Z,8.20
2023-04-01T12:02:11.046Z,8.80
2023-04-01T12:05:16.060Z,8.50
2023-04-01T12:06:45.660Z,11.10
2023-04-01T12:07:51.453Z,10.40
2023-04-01T12:09:32.567Z,10.80
2023-04-01T12:10:42.663Z,7.50
2023-04-01T12:11:56.139Z,10.90
2023-04-01T12:14:41.490Z,10.30
2023-04-01T12:16:09.813Z,8.00
2023-04-01T12:17:40.298Z,9.90
2023-04-01T12:19:02.216Z,9.20
2023-04-01T12:20:39.001Z,9.90
2023-04-01T12:22:04.690Z,9.40
2023-04-01T12:23:30.726Z,7.90
2023-04-01T12:24:48.686Z,7.70
2023-04-01T12:26:04.435Z,10.10
2023-04-01T12:27:31.158Z,8.20
2023-04-01T12:28:56.031Z,11.50
2023-04-01T12:30:10.414Z,8.10
2023-04-01T12:31:49.338Z,8.70
2023-04-01T12:33:38.766Z,9.20
2023-04-01T12:36:39.165Z,8.50
2023-04-01T12:40:07.942Z,8.80
2023-04-01T12:43:04.133Z,9.50
2023-04-01T12:44:44.061Z,8.20
2023-04-01T12:46:25.343Z,5.30
2023-04-01T12:48:10.733Z,8.00
2023-04-01T12:49:42.800Z,6.30
2023-04-01T12:52:52.740Z,8.20
2023-04-01T12:54:20.937Z,6.60
2023-04-01T12:55:49.592Z,7.20
2023-04-01T12:57:25.766Z,6.70
2023-04-01T12:59:09.314Z,6.90
2023-04-01T13:00:46.960Z,6.90
2023-04-01T13:02:17.015Z,6.20
2023-04-01T13:04:00.249Z,7.60
2023-04-01T13:06:59.076Z,8.80
2023-04-01T13:09:54.070Z,8.80
2023-04-01T13:11:11.109Z,6.80
2023-04-01T13:12:19.108Z,8.10
2023-04-01T13:13:35.584Z,6.90
2023-04-01T13:15:06.150Z,6.90
2023-04-01T13:16:35.050Z,6.30
2023-04-01T13:17:51.605Z,6.30
2023-04-01T13:20:46.076Z,6.40
2023-04-01T13:22:01.633Z,6.00
2023-04-01T13:24:50.377Z,5.60
2023-04-01T13:26:16.105Z,7.20
2023-04-01T13:27:36.728Z,6.40
2023-04-01T13:29:03.673Z,6.60
2023-04-01T13:30:28.679Z,5.60
2023-04-01T13:33:53.417Z,6.00
2023-04-01T13:35:15.079Z,4.90
2023-04-01T13:36:31.005Z,6.00
2023-04-01T13:41:02.408Z,5.80
2023-04-01T13:42:36.600Z,6.60
2023-04-01T13:45:14.697Z,7.70
2023-04-01T13:48:21.459Z,6.60
2023-04-01T13:49:36.970Z,6.00
2023-04-01T13:50:49.451Z,4.40
2023-04-01T13:52:20.319Z,5.80
2023-04-01T13:53:54.228Z,4.70
2023-04-01T13:55:40.230Z,6.40
2023-04-01T13:58:43.682Z,4.80
2023-04-01T14:00:19.804Z,6.30
2023-04-01T14:03:29.267Z,7.60
2023-04-01T14:05:15.174Z,5.60
2023-04-01T14:08:22.053Z,6.50
2023-04-01T14:11:40.616Z,5.40
2023-04-01T14:13:17.274Z,4.50
2023-04-01T14:19:35.910Z,5.90
2023-04-01T14:22:15.001Z,6.00
2023-04-01T14:23:41.517Z,5.70
2023-04-01T14:25:13.192Z,3.90
2023-04-01T14:26:44.985Z,6.00
2023-04-01T14:27:50.721Z,4.50
2023-04-01T14:29:08.666Z,6.30
2023-04-01T14:30:41.142Z,5.80
2023-04-01T14:32:08.132Z,5.60
2023-04-01T14:33:28.479Z,4.20
2023-04-01T14:34:36.988Z,5.30
2023-04-01T14:35:59.326Z,5.10
2023-04-01T14:37:20.333Z,6.40
2023-04-01T14:38:52.018Z,4.50
2023-04-01T14:40:21.400Z,4.70
2023-04-01T14:43:10.124Z,6.50
2023-04-01T14:44:32.956Z,6.00
2023-04-01T14:48:38.172Z,6.00
2023-04-01T14:49:42.515Z,6.10
2023-04-01T14:52:25.348Z,5.60
2023-04-01T14:53:29.729Z,6.10
2023-04-01T14:54:39.577Z,5.00
2023-04-01T14:55:45.333Z,6.50
2023-04-01T14:56:50.469Z,5.80
2023-04-01T14:58:00.658Z,6.60
2023-04-01T14:59:06.522Z,4.80
2023-04-01T15:00:15.149Z,7.00
2023-04-01T15:01:49.164Z,5.70
2023-04-01T15:02:59.589Z,6.30
2023-04-01T15:04:26.170Z,6.30
2023-04-01T15:05:49.240Z,5.50
2023-04-01T15:07:09.955Z,6.80
2023-04-01T15:08:23.933Z,7.50
2023-04-01T15:09:42.733Z,6.40
2023-04-01T15:10:54.561Z,6.60
2023-04-01T15:12:15.943Z,6.10
2023-04-01T15:13:39.399Z,8.10
2023-04-01T15:15:07.140Z,7.10
2023-04-01T15:16:16.546Z,7.90
2023-04-01T15:17:46.817Z,7.10
2023-04-01T15:19:11.273Z,8.00
2023-04-01T15:20:34.185Z,7.50
2023-04-01T15:21:59.974Z,6.20
2023-04-01T15:25:10.863Z,7.40
2023-04-01T15:26:17.429Z,6.30
2023-04-01T15:30:20.599Z,7.10
2023-04-01T15:31:44.033Z,7.10
2023-04-01T15:34:04.551Z,7.50
2023-04-01T15:35:16.026Z,7.90
2023-04-01T15:36:40.318Z,7.10
2023-04-01T15:39:20.324Z,7.40
2023-04-01T15:40:35.852Z,6.70
2023-04-01T15:43:27.449Z,6.50
2023-04-01T15:44:37.514Z,6.80
2023-04-01T15:46:58.767Z,8.40
2023-04-01T15:48:13.704Z,6.80
2023-04-01T15:52:24.268Z,7.90
2023-04-01T15:53:44.946Z,7.40
2023-04-01T15:56:23.474Z,7.80
2023-04-01T15:58:05.412Z,7.60
2023-04-01T15:59:47.332Z,6.90
2023-04-01T16:00:56.150Z,7.20
2023-04-01T16:02:34.659Z,7.20
2023-04-01T16:05:10.121Z,9.20
2023-04-01T16:07:55.935Z,8.70
2023-04-01T16:09:05.511Z,8.60
2023-04-01T16:12:28.187Z,8.70
2023-04-01T16:13:49.701Z,8.90
2023-04-01T16:14:58.171Z,10.80
2023-04-01T16:16:26.941Z,10.20
2023-04-01T16:19:36.957Z,10.00
2023-04-01T16:21:08.439Z,11.60
2023-04-01T16:22:20.937Z,10.10
2023-04-01T16:23:56.418Z,10.40
2023-04-01T16:25:39.102Z,11.20
2023-04-01T16:30:10.600Z,10.50
2023-04-01T16:31:39.066Z,7.80
2023-04-01T16:32:54.616Z,8.00
2023-04-01T16:34:13.124Z,6.60
2023-04-01T16:35:32.157Z,6.90
2023-04-01T16:36:48.211Z,8.00
2023-04-01T16:38:03.457Z,9.00
2023-04-01T16:42:17.935Z,8.90
2023-04-01T16:43:43.161Z,7.40
2023-04-01T16:45:02.746Z,8.50
2023-04-01T16:46:28.277Z,9.10
2023-04-01T16:47:34.693Z,8.80
2023-04-01T16:49:00.162Z,7.00
2023-04-01T16:51:26.179Z,9.70
2023-04-01T16:54:12.338Z,9.30
2023-04-01T16:55:21.140Z,6.90
2023-04-01T16:56:27.921Z,9.70
2023-04-01T16:57:37.025Z,8.80
2023-04-01T16:58:45.897Z,8.60
2023-04-01T16:59:54.763Z,9.60
2023-04-01T17:01:08.042Z,7.90
2023-04-01T17:02:15.342Z,7.20
2023-04-01T17:05:08.676Z,9.10
2023-04-01T17:06:27.728Z,6.70
2023-04-01T17:07:57.746Z,8.20
2023-04-01T17:09:30.571Z,8.70
2023-04-01T17:13:50.231Z,9.80
2023-04-01T17:15:17.663Z,8.20
2023-04-01T17:16:43.252Z,8.20
2023-04-01T17:18:08.925Z,7.80
2023-04-01T17:19:26.791Z,8.60
2023-04-01T17:20:36.388Z,8.50
2023-04-01T17:21:52.361Z,10.10
2023-04-01T17:23:14.785Z,8.00
2023-04-01T17:24:26.575Z,8.80
2023-04-01T17:25:41.624Z,8.90
2023-04-01T17:27:08.880Z,9.10
2023-04-01T17:28:42.143Z,10.80
2023-04-01T17:30:00.260Z,10.70
2023-04-01T17:31:14.775Z,8.10
2023-04-01T17:32:57.088Z,11.50
2023-04-01T17:36:24.150Z,11.50
2023-04-01T17:38:04.781Z,8.10
2023-04-01T17:39:45.728Z,10.30
2023-04-01T17:40:53.630Z,8.90
2023-04-01T17:42:11.114Z,11.10
2023-04-01T17:43:26.593Z,11.00
2023-04-01T17:44:53.275Z,9.50
2023-04-01T17:47:25.709Z,12.20
2023-04-01T17:48:53.208Z,11.00
2023-04-01T17:50:24.804Z,10.50
2023-04-01T17:51:44.065Z,9.10
2023-04-01T17:53:06.767Z,11.50
2023-04-01T17:56:44.473Z,9.40
2023-04-01T17:57:55.848Z,9.60
2023-04-01T18:00:18.354Z,11.00
2023-04-01T18:01:32.279Z,10.20
2023-04-01T18:03:03.093Z,8.40
2023-04-01T18:05:49.981Z,9.60
2023-04-01T18:08:49.896Z,12.80
2023-04-01T18:10:24.628Z,11.20
2023-04-01T18:13:24.928Z,9.10
2023-04-01T18:14:43.393Z,10.20
2023-04-01T18:16:11.425Z,10.20
2023-04-01T18:17:17.265Z,10.50
2023-04-01T18:18:31.234Z,10.80
2023-04-01T18:19:53.428Z,10.50
2023-04-01T18:21:40.650Z,10.20
2023-04-01T18:23:20.414Z,10.00
2023-04-01T18:24:33.552Z,7.80
2023-04-01T18:25:39.233Z,10.00
2023-04-01T18:26:44.465Z,11.10
2023-04-01T18:27:50.047Z,9.70
2023-04-01T18:30:16.947Z,9.50
2023-04-01T18:31:22.746Z,10.40
2023-04-01T18:32:38.389Z,7.30
2023-04-01T18:34:16.884Z,8.60
2023-04-01T18:36:47.704Z,9.10
2023-04-01T18:38:03.553Z,8.70
2023-04-01T18:39:15.459Z,9.30
2023-04-01T18:40:36.740Z,9.90
2023-04-01T18:42:06.881Z,7.70
2023-04-01T18:43:25.866Z,8.90
2023-04-01T18:44:48.698Z,7.30
2023-04-01T18:46:02.555Z,8.50
2023-04-01T18:49:02.436Z,8.90
2023-04-01T18:50:26.340Z,7.40
2023-04-01T18:51:47.136Z,8.10
2023-04-01T18:52:51.804Z,8.60
2023-04-01T18:54:07.197Z,7.50
2023-04-01T18:55:38.853Z,6.50
2023-04-01T18:56:45.060Z,9.60
2023-04-01T18:57:55.556Z,9.50
2023-04-01T19:00:41.624Z,11.00
2023-04-01T19:02:04.404Z,10.20
2023-04-01T19:03:23.384Z,8.60
2023-04-01T19:04:40.422Z,8.60
2023-04-01T19:05:45.188Z,8.40
2023-04-01T19:06:52.549Z,9.10
2023-04-01T19:07:56.353Z,9.00
2023-04-01T19:09:02.117Z,9.55
2023-04-01T19:10:22.482Z,8.40
2023-04-01T19:11:42.458Z,8.80
2023-04-01T19:13:34.249Z,9.80
2023-04-01T19:15:11.716Z,8.40
2023-04-01T19:16:53.966Z,10.10
2023-04-01T19:18:26.754Z,8.90
2023-04-01T19:19:55.578Z,10.10